sensor_id;sensor_type;location;lat;lon;timestamp;temperature;humidity
5394;DHT22;2720;52.396;10.064;2023-04-29T00:01:26;12.20;99.90
5394;DHT22;2720;52.396;10.064;2023-04-29T00:03:53;12.20;99.90
5394;DHT22;2720;52.396;10.064;2023-04-29T00:06:22;12.10;99.90
5394;DHT22;2720;52.396;10.064;2023-04-29T00:08:49;12.10;99.90
5394;DHT22;2720;52.396;10.064;2023-04-29T00:11:16;12.10;99.90
5394;DHT22;2720;52.396;10.064;2023-04-29T00:13:43;12.10;99.90
5394;DHT22;2720;52.396;10.064;2023-04-29T00:16:10;12.10;99.90
5394;DHT22;2720;52.396;10.064;2023-04-29T00:18:38;12.10;99.90
5394;DHT22;2720;52.396;10.064;2023-04-29T00:21:05;12.10;99.90
5394;DHT22;2720;52.396;10.064;2023-04-29T00:23:33;12.00;99.90
5394;DHT22;2720;52.396;10.064;2023-04-29T00:26:00;12.00;99.90
5394;DHT22;2720;52.396;10.064;2023-04-29T00:28:28;11.90;99.90
5394;DHT22;2720;52.396;10.064;2023-04-29T00:30:55;12.00;99.90
5394;DHT22;2720;52.396;10.064;2023-04-29T00:33:22;11.90;99.90
5394;DHT22;2720;52.396;10.064;2023-04-29T00:35:49;11.90;99.90
5394;DHT22;2720;52.396;10.064;2023-04-29T00:38:16;11.90;99.90
5394;DHT22;2720;52.396;10.064;2023-04-29T00:40:45;11.90;99.90
5394;DHT22;2720;52.396;10.064;2023-04-29T00:43:12;11.90;99.90
5394;DHT22;2720;52.396;10.064;2023-04-29T00:45:38;11.90;99.90
5394;DHT22;2720;52.396;10.064;2023-04-29T00:48:05;11.90;99.90
5394;DHT22;2720;52.396;10.064;2023-04-29T00:50:33;12.00;99.90
5394;DHT22;2720;52.396;10.064;2023-04-29T00:53:01;11.90;99.90
5394;DHT22;2720;52.396;10.064;2023-04-29T00:55:29;11.90;99.90
5394;DHT22;2720;52.396;10.064;2023-04-29T00:57:58;11.90;99.90
5394;DHT22;2720;52.396;10.064;2023-04-29T01:00:25;11.80;99.90
5394;DHT22;2720;52.396;10.064;2023-04-29T01:02:52;11.90;99.90
5394;DHT22;2720;52.396;10.064;2023-04-29T01:05:21;11.80;99.90
5394;DHT22;2720;52.396;10.064;2023-04-29T01:07:57;11.80;99.90
5394;DHT22;2720;52.396;10.064;2023-04-29T01:10:37;11.80;99.90
5394;DHT22;2720;52.396;10.064;2023-04-29T01:13:11;11.80;99.90
5394;DHT22;2720;52.396;10.064;2023-04-29T01:15:46;11.80;99.90
5394;DHT22;2720;52.396;10.064;2023-04-29T01:18:24;11.70;99.90
5394;DHT22;2720;52.396;10.064;2023-04-29T01:20:52;11.70;99.90
5394;DHT22;2720;52.396;10.064;2023-04-29T01:23:19;11.60;99.90
5394;DHT22;2720;52.396;10.064;2023-04-29T01:25:47;11.60;99.90
5394;DHT22;2720;52.396;10.064;2023-04-29T01:31:06;11.50;99.90
5394;DHT22;2720;52.396;10.064;2023-04-29T01:33:40;11.50;99.90
5394;DHT22;2720;52.396;10.064;2023-04-29T01:36:17;11.40;99.90
5394;DHT22;2720;52.396;10.064;2023-04-29T01:38:54;11.40;99.90
5394;DHT22;2720;52.396;10.064;2023-04-29T01:41:33;11.40;99.90
5394;DHT22;2720;52.396;10.064;2023-04-29T01:44:02;11.30;99.90
5394;DHT22;2720;52.396;10.064;2023-04-29T01:46:30;11.30;99.90
5394;DHT22;2720;52.396;10.064;2023-04-29T01:48:57;11.20;99.90
5394;DHT22;2720;52.396;10.064;2023-04-29T01:51:24;11.20;99.90
5394;DHT22;2720;52.396;10.064;2023-04-29T01:53:53;11.20;99.90
5394;DHT22;2720;52.396;10.064;2023-04-29T01:56:20;11.20;99.90
5394;DHT22;2720;52.396;10.064;2023-04-29T01:58:48;11.20;99.90
5394;DHT22;2720;52.396;10.064;2023-04-29T02:01:15;11.20;99.90
5394;DHT22;2720;52.396;10.064;2023-04-29T02:03:42;11.20;99.90
5394;DHT22;2720;52.396;10.064;2023-04-29T02:06:09;11.20;99.90
5394;DHT22;2720;52.396;10.064;2023-04-29T02:08:35;11.20;99.90
5394;DHT22;2720;52.396;10.064;2023-04-29T02:11:02;11.20;99.90
5394;DHT22;2720;52.396;10.064;2023-04-29T02:40:40;10.90;99.90
5394;DHT22;2720;52.396;10.064;2023-04-29T02:43:07;10.80;99.90
5394;DHT22;2720;52.396;10.064;2023-04-29T02:45:34;10.80;99.90
5394;DHT22;2720;52.396;10.064;2023-04-29T02:48:01;10.70;99.90
5394;DHT22;2720;52.396;10.064;2023-04-29T02:50:28;10.70;99.90
5394;DHT22;2720;52.396;10.064;2023-04-29T02:52:55;10.60;99.90
5394;DHT22;2720;52.396;10.064;2023-04-29T02:55:22;10.60;99.90
5394;DHT22;2720;52.396;10.064;2023-04-29T02:57:50;10.60;99.90
5394;DHT22;2720;52.396;10.064;2023-04-29T03:00:17;10.60;99.90
5394;DHT22;2720;52.396;10.064;2023-04-29T03:02:45;10.60;99.90
5394;DHT22;2720;52.396;10.064;2023-04-29T03:05:12;10.50;99.90
5394;DHT22;2720;52.396;10.064;2023-04-29T03:07:38;10.50;99.90
5394;DHT22;2720;52.396;10.064;2023-04-29T03:10:06;10.50;99.90
5394;DHT22;2720;52.396;10.064;2023-04-29T03:12:33;10.40;99.90
5394;DHT22;2720;52.396;10.064;2023-04-29T03:15:02;10.40;99.90
5394;DHT22;2720;52.396;10.064;2023-04-29T03:17:30;10.30;99.90
5394;DHT22;2720;52.396;10.064;2023-04-29T03:19:57;10.30;99.90
5394;DHT22;2720;52.396;10.064;2023-04-29T03:22:24;10.30;99.90
5394;DHT22;2720;52.396;10.064;2023-04-29T03:24:51;10.20;99.90
5394;DHT22;2720;52.396;10.064;2023-04-29T03:27:18;10.10;99.90
5394;DHT22;2720;52.396;10.064;2023-04-29T03:29:45;10.10;99.90
5394;DHT22;2720;52.396;10.064;2023-04-29T03:32:13;10.00;99.90
5394;DHT22;2720;52.396;10.064;2023-04-29T03:34:40;10.00;99.90
5394;DHT22;2720;52.396;10.064;2023-04-29T03:37:07;9.90;99.90
5394;DHT22;2720;52.396;10.064;2023-04-29T03:39:34;9.90;99.90
5394;DHT22;2720;52.396;10.064;2023-04-29T03:42:01;9.90;99.90
5394;DHT22;2720;52.396;10.064;2023-04-29T03:44:29;9.90;99.90
5394;DHT22;2720;52.396;10.064;2023-04-29T03:46:56;9.90;99.90
5394;DHT22;2720;52.396;10.064;2023-04-29T03:49:25;9.80;99.90
5394;DHT22;2720;52.396;10.064;2023-04-29T03:51:53;9.80;99.90
5394;DHT22;2720;52.396;10.064;2023-04-29T03:54:20;9.80;99.90
5394;DHT22;2720;52.396;10.064;2023-04-29T03:56:47;9.70;99.90
5394;DHT22;2720;52.396;10.064;2023-04-29T03:59:14;9.70;99.90
5394;DHT22;2720;52.396;10.064;2023-04-29T04:01:41;9.70;99.90
5394;DHT22;2720;52.396;10.064;2023-04-29T04:04:07;9.70;99.90
5394;DHT22;2720;52.396;10.064;2023-04-29T04:06:36;9.70;99.90
5394;DHT22;2720;52.396;10.064;2023-04-29T04:09:03;9.70;99.90
5394;DHT22;2720;52.396;10.064;2023-04-29T04:11:30;9.60;99.90
5394;DHT22;2720;52.396;10.064;2023-04-29T04:13:57;9.60;99.90
5394;DHT22;2720;52.396;10.064;2023-04-29T04:16:24;9.70;99.90
5394;DHT22;2720;52.396;10.064;2023-04-29T04:18:51;9.60;99.90
5394;DHT22;2720;52.396;10.064;2023-04-29T04:21:18;9.60;99.90
5394;DHT22;2720;52.396;10.064;2023-04-29T04:23:47;9.60;99.90
5394;DHT22;2720;52.396;10.064;2023-04-29T04:26:14;9.60;99.90
5394;DHT22;2720;52.396;10.064;2023-04-29T04:28:40;9.60;99.90
5394;DHT22;2720;52.396;10.064;2023-04-29T04:31:07;9.60;99.90
5394;DHT22;2720;52.396;10.064;2023-04-29T04:33:34;9.60;99.90
5394;DHT22;2720;52.396;10.064;2023-04-29T04:36:01;9.60;99.90
5394;DHT22;2720;52.396;10.064;2023-04-29T04:38:28;9.50;99.90
5394;DHT22;2720;52.396;10.064;2023-04-29T04:40:59;9.50;99.90
5394;DHT22;2720;52.396;10.064;2023-04-29T04:43:26;9.50;99.90
5394;DHT22;2720;52.396;10.064;2023-04-29T04:45:53;9.50;99.90
5394;DHT22;2720;52.396;10.064;2023-04-29T04:48:20;9.50;99.90
5394;DHT22;2720;52.396;10.064;2023-04-29T04:50:46;9.50;99.90
5394;DHT22;2720;52.396;10.064;2023-04-29T04:53:13;9.50;99.90
5394;DHT22;2720;52.396;10.064;2023-04-29T04:55:40;9.40;99.90
5394;DHT22;2720;52.396;10.064;2023-04-29T04:58:09;9.50;99.90
5394;DHT22;2720;52.396;10.064;2023-04-29T05:00:35;9.40;99.90
5394;DHT22;2720;52.396;10.064;2023-04-29T05:03:03;9.40;99.90
5394;DHT22;2720;52.396;10.064;2023-04-29T05:05:32;9.40;99.90
5394;DHT22;2720;52.396;10.064;2023-04-29T05:07:59;9.40;99.90
5394;DHT22;2720;52.396;10.064;2023-04-29T05:10:26;9.40;99.90
5394;DHT22;2720;52.396;10.064;2023-04-29T05:12:53;9.40;99.90
5394;DHT22;2720;52.396;10.064;2023-04-29T05:15:21;9.40;99.90
5394;DHT22;2720;52.396;10.064;2023-04-29T05:17:48;9.40;99.90
5394;DHT22;2720;52.396;10.064;2023-04-29T05:20:15;9.50;99.90
5394;DHT22;2720;52.396;10.064;2023-04-29T05:22:42;9.40;99.90
5394;DHT22;2720;52.396;10.064;2023-04-29T05:25:09;9.40;99.90
5394;DHT22;2720;52.396;10.064;2023-04-29T05:27:36;9.40;99.90
5394;DHT22;2720;52.396;10.064;2023-04-29T05:30:04;9.40;99.90
5394;DHT22;2720;52.396;10.064;2023-04-29T05:32:32;9.30;99.90
5394;DHT22;2720;52.396;10.064;2023-04-29T05:34:59;9.40;99.90
5394;DHT22;2720;52.396;10.064;2023-04-29T05:37:26;9.40;99.90
5394;DHT22;2720;52.396;10.064;2023-04-29T05:39:55;9.40;99.90
5394;DHT22;2720;52.396;10.064;2023-04-29T05:42:22;9.40;99.90
5394;DHT22;2720;52.396;10.064;2023-04-29T05:44:49;9.50;99.90
5394;DHT22;2720;52.396;10.064;2023-04-29T05:47:16;9.50;99.90
5394;DHT22;2720;52.396;10.064;2023-04-29T05:49:45;9.50;99.90
5394;DHT22;2720;52.396;10.064;2023-04-29T05:52:12;9.50;99.90
5394;DHT22;2720;52.396;10.064;2023-04-29T05:54:39;9.50;99.90
5394;DHT22;2720;52.396;10.064;2023-04-29T05:57:06;9.50;99.90
5394;DHT22;2720;52.396;10.064;2023-04-29T05:59:33;9.60;99.90
5394;DHT22;2720;52.396;10.064;2023-04-29T06:02:00;9.60;99.90
5394;DHT22;2720;52.396;10.064;2023-04-29T06:04:27;9.70;99.90
5394;DHT22;2720;52.396;10.064;2023-04-29T06:06:56;9.70;99.90
5394;DHT22;2720;52.396;10.064;2023-04-29T06:09:23;9.80;99.90
5394;DHT22;2720;52.396;10.064;2023-04-29T06:11:50;9.90;99.90
5394;DHT22;2720;52.396;10.064;2023-04-29T06:14:17;9.90;99.90
5394;DHT22;2720;52.396;10.064;2023-04-29T06:16:44;9.90;99.90
5394;DHT22;2720;52.396;10.064;2023-04-29T06:19:11;9.80;99.90
5394;DHT22;2720;52.396;10.064;2023-04-29T06:21:38;9.80;99.90
5394;DHT22;2720;52.396;10.064;2023-04-29T06:24:06;9.90;99.90
5394;DHT22;2720;52.396;10.064;2023-04-29T06:26:33;9.90;99.90
5394;DHT22;2720;52.396;10.064;2023-04-29T06:29:01;9.90;99.90
5394;DHT22;2720;52.396;10.064;2023-04-29T06:31:28;9.90;99.90
5394;DHT22;2720;52.396;10.064;2023-04-29T06:33:55;9.90;99.90
5394;DHT22;2720;52.396;10.064;2023-04-29T06:36:22;9.90;99.90
5394;DHT22;2720;52.396;10.064;2023-04-29T06:38:49;9.90;99.90
5394;DHT22;2720;52.396;10.064;2023-04-29T06:41:17;9.80;99.90
5394;DHT22;2720;52.396;10.064;2023-04-29T06:43:44;9.80;99.90
5394;DHT22;2720;52.396;10.064;2023-04-29T06:46:12;9.80;99.90
5394;DHT22;2720;52.396;10.064;2023-04-29T06:48:39;9.80;99.90
5394;DHT22;2720;52.396;10.064;2023-04-29T06:51:06;9.80;99.90
5394;DHT22;2720;52.396;10.064;2023-04-29T06:53:33;9.90;99.90
5394;DHT22;2720;52.396;10.064;2023-04-29T06:56:00;10.00;99.90
5394;DHT22;2720;52.396;10.064;2023-04-29T06:58:29;10.20;99.90
5394;DHT22;2720;52.396;10.064;2023-04-29T07:00:56;10.40;99.90
5394;DHT22;2720;52.396;10.064;2023-04-29T07:03:23;10.60;99.90
5394;DHT22;2720;52.396;10.064;2023-04-29T07:05:49;10.80;99.90
5394;DHT22;2720;52.396;10.064;2023-04-29T07:08:16;11.10;99.90
5394;DHT22;2720;52.396;10.064;2023-04-29T07:10:43;11.30;99.90
5394;DHT22;2720;52.396;10.064;2023-04-29T07:13:18;11.40;99.90
5394;DHT22;2720;52.396;10.064;2023-04-29T07:15:47;11.50;99.90
5394;DHT22;2720;52.396;10.064;2023-04-29T07:18:14;11.40;99.90
5394;DHT22;2720;52.396;10.064;2023-04-29T07:20:41;11.50;99.90
5394;DHT22;2720;52.396;10.064;2023-04-29T07:23:08;11.70;99.90
5394;DHT22;2720;52.396;10.064;2023-04-29T07:25:35;11.90;99.90
5394;DHT22;2720;52.396;10.064;2023-04-29T07:28:02;12.30;99.90
5394;DHT22;2720;52.396;10.064;2023-04-29T07:30:29;12.60;99.90
5394;DHT22;2720;52.396;10.064;2023-04-29T07:32:57;12.70;99.90
5394;DHT22;2720;52.396;10.064;2023-04-29T07:35:25;12.50;99.90
5394;DHT22;2720;52.396;10.064;2023-04-29T07:37:52;12.50;99.90
5394;DHT22;2720;52.396;10.064;2023-04-29T07:40:19;12.40;99.90
5394;DHT22;2720;52.396;10.064;2023-04-29T07:42:46;12.20;99.90
5394;DHT22;2720;52.396;10.064;2023-04-29T07:45:13;12.20;99.90
5394;DHT22;2720;52.396;10.064;2023-04-29T07:47:40;12.00;99.90
5394;DHT22;2720;52.396;10.064;2023-04-29T07:50:09;12.00;99.90
5394;DHT22;2720;52.396;10.064;2023-04-29T07:52:36;12.20;99.90
5394;DHT22;2720;52.396;10.064;2023-04-29T07:55:03;12.40;99.90
5394;DHT22;2720;52.396;10.064;2023-04-29T07:57:30;12.50;99.90
5394;DHT22;2720;52.396;10.064;2023-04-29T07:59:57;12.60;99.90
5394;DHT22;2720;52.396;10.064;2023-04-29T08:02:24;12.70;99.90
5394;DHT22;2720;52.396;10.064;2023-04-29T08:04:52;12.50;99.90
5394;DHT22;2720;52.396;10.064;2023-04-29T08:07:21;12.60;99.90
5394;DHT22;2720;52.396;10.064;2023-04-29T08:09:48;12.60;99.90
5394;DHT22;2720;52.396;10.064;2023-04-29T08:12:15;12.70;99.90
5394;DHT22;2720;52.396;10.064;2023-04-29T08:14:42;12.40;99.90
5394;DHT22;2720;52.396;10.064;2023-04-29T08:17:09;12.40;99.90
5394;DHT22;2720;52.396;10.064;2023-04-29T08:19:36;12.50;99.90
5394;DHT22;2720;52.396;10.064;2023-04-29T08:22:03;12.90;99.90
5394;DHT22;2720;52.396;10.064;2023-04-29T08:24:31;13.30;99.90
5394;DHT22;2720;52.396;10.064;2023-04-29T08:26:59;13.50;99.90
5394;DHT22;2720;52.396;10.064;2023-04-29T08:29:30;13.40;99.90
5394;DHT22;2720;52.396;10.064;2023-04-29T08:31:58;13.10;99.90
5394;DHT22;2720;52.396;10.064;2023-04-29T08:34:25;12.90;99.90
5394;DHT22;2720;52.396;10.064;2023-04-29T08:36:52;12.80;99.90
5394;DHT22;2720;52.396;10.064;2023-04-29T08:39:19;13.00;99.90
5394;DHT22;2720;52.396;10.064;2023-04-29T08:41:47;13.10;99.90
5394;DHT22;2720;52.396;10.064;2023-04-29T08:44:16;13.20;99.90
5394;DHT22;2720;52.396;10.064;2023-04-29T08:46:44;13.20;99.90
5394;DHT22;2720;52.396;10.064;2023-04-29T08:49:12;13.40;99.90
5394;DHT22;2720;52.396;10.064;2023-04-29T08:51:39;13.70;99.90
5394;DHT22;2720;52.396;10.064;2023-04-29T08:54:06;13.80;99.90
5394;DHT22;2720;52.396;10.064;2023-04-29T08:56:33;14.10;99.90
5394;DHT22;2720;52.396;10.064;2023-04-29T08:59:03;14.10;99.90
5394;DHT22;2720;52.396;10.064;2023-04-29T09:01:31;14.20;99.90
5394;DHT22;2720;52.396;10.064;2023-04-29T09:04:08;14.40;99.90
5394;DHT22;2720;52.396;10.064;2023-04-29T09:06:38;14.80;99.90
5394;DHT22;2720;52.396;10.064;2023-04-29T09:09:05;15.10;99.90
5394;DHT22;2720;52.396;10.064;2023-04-29T09:11:33;15.50;99.90
5394;DHT22;2720;52.396;10.064;2023-04-29T09:14:02;15.70;99.90
5394;DHT22;2720;52.396;10.064;2023-04-29T09:16:30;15.60;99.90
5394;DHT22;2720;52.396;10.064;2023-04-29T09:18:57;15.40;99.90
5394;DHT22;2720;52.396;10.064;2023-04-29T09:21:25;15.40;99.90
5394;DHT22;2720;52.396;10.064;2023-04-29T09:23:53;15.50;99.90
5394;DHT22;2720;52.396;10.064;2023-04-29T09:26:21;15.40;99.90
5394;DHT22;2720;52.396;10.064;2023-04-29T09:29:07;15.50;99.90
5394;DHT22;2720;52.396;10.064;2023-04-29T09:31:36;15.60;99.90
5394;DHT22;2720;52.396;10.064;2023-04-29T09:34:03;15.70;99.90
5394;DHT22;2720;52.396;10.064;2023-04-29T09:36:41;15.60;99.90
5394;DHT22;2720;52.396;10.064;2023-04-29T09:39:11;15.80;99.90
5394;DHT22;2720;52.396;10.064;2023-04-29T09:41:56;15.50;99.90
5394;DHT22;2720;52.396;10.064;2023-04-29T09:44:26;15.20;99.90
5394;DHT22;2720;52.396;10.064;2023-04-29T09:46:55;15.10;99.90
5394;DHT22;2720;52.396;10.064;2023-04-29T09:49:23;15.20;99.90
5394;DHT22;2720;52.396;10.064;2023-04-29T09:51:55;15.60;99.90
5394;DHT22;2720;52.396;10.064;2023-04-29T09:54:24;15.60;99.90
5394;DHT22;2720;52.396;10.064;2023-04-29T09:56:53;15.40;99.90
5394;DHT22;2720;52.396;10.064;2023-04-29T09:59:21;15.00;99.90
5394;DHT22;2720;52.396;10.064;2023-04-29T10:01:50;14.40;99.90
5394;DHT22;2720;52.396;10.064;2023-04-29T10:04:18;14.20;99.90
5394;DHT22;2720;52.396;10.064;2023-04-29T10:06:48;14.10;99.90
5394;DHT22;2720;52.396;10.064;2023-04-29T10:09:16;13.80;99.90
5394;DHT22;2720;52.396;10.064;2023-04-29T10:11:43;13.90;99.90
5394;DHT22;2720;52.396;10.064;2023-04-29T10:14:12;14.00;99.90
5394;DHT22;2720;52.396;10.064;2023-04-29T10:16:45;14.10;99.90
5394;DHT22;2720;52.396;10.064;2023-04-29T10:19:18;14.20;99.90
5394;DHT22;2720;52.396;10.064;2023-04-29T10:21:48;14.60;99.90
5394;DHT22;2720;52.396;10.064;2023-04-29T10:24:17;14.70;99.90
5394;DHT22;2720;52.396;10.064;2023-04-29T10:26:46;14.80;99.90
5394;DHT22;2720;52.396;10.064;2023-04-29T10:29:16;14.90;99.90
5394;DHT22;2720;52.396;10.064;2023-04-29T10:31:43;14.90;99.90
5394;DHT22;2720;52.396;10.064;2023-04-29T10:34:12;15.10;99.90
5394;DHT22;2720;52.396;10.064;2023-04-29T10:36:44;15.60;99.90
5394;DHT22;2720;52.396;10.064;2023-04-29T10:39:18;16.00;99.90
5394;DHT22;2720;52.396;10.064;2023-04-29T10:41:47;16.20;99.90
5394;DHT22;2720;52.396;10.064;2023-04-29T10:44:15;16.30;99.90
5394;DHT22;2720;52.396;10.064;2023-04-29T10:46:42;16.30;99.90
5394;DHT22;2720;52.396;10.064;2023-04-29T10:49:10;16.00;99.90
5394;DHT22;2720;52.396;10.064;2023-04-29T10:51:39;15.50;99.90
5394;DHT22;2720;52.396;10.064;2023-04-29T10:54:09;15.10;99.90
5394;DHT22;2720;52.396;10.064;2023-04-29T10:56:40;15.00;99.90
5394;DHT22;2720;52.396;10.064;2023-04-29T10:59:11;14.80;99.90
5394;DHT22;2720;52.396;10.064;2023-04-29T11:01:46;14.80;99.90
5394;DHT22;2720;52.396;10.064;2023-04-29T11:04:13;14.90;99.90
5394;DHT22;2720;52.396;10.064;2023-04-29T11:06:46;15.30;99.90
5394;DHT22;2720;52.396;10.064;2023-04-29T11:09:18;16.30;99.90
5394;DHT22;2720;52.396;10.064;2023-04-29T11:11:56;17.20;99.90
5394;DHT22;2720;52.396;10.064;2023-04-29T11:14:25;17.50;99.90
5394;DHT22;2720;52.396;10.064;2023-04-29T11:16:54;17.60;99.90
5394;DHT22;2720;52.396;10.064;2023-04-29T11:19:24;17.50;99.90
5394;DHT22;2720;52.396;10.064;2023-04-29T11:22:13;17.20;99.90
5394;DHT22;2720;52.396;10.064;2023-04-29T11:24:53;17.10;99.90
5394;DHT22;2720;52.396;10.064;2023-04-29T11:27:21;16.80;99.90
5394;DHT22;2720;52.396;10.064;2023-04-29T11:29:50;16.50;99.90
5394;DHT22;2720;52.396;10.064;2023-04-29T11:32:20;16.50;99.90
5394;DHT22;2720;52.396;10.064;2023-04-29T11:34:47;16.60;99.90
5394;DHT22;2720;52.396;10.064;2023-04-29T11:37:22;16.40;99.90
5394;DHT22;2720;52.396;10.064;2023-04-29T11:39:50;16.30;99.90
5394;DHT22;2720;52.396;10.064;2023-04-29T11:42:19;16.20;99.90
5394;DHT22;2720;52.396;10.064;2023-04-29T11:44:46;14.80;99.90
5394;DHT22;2720;52.396;10.064;2023-04-29T11:47:13;16.10;99.90
5394;DHT22;2720;52.396;10.064;2023-04-29T11:49:40;16.50;99.90
5394;DHT22;2720;52.396;10.064;2023-04-29T11:52:07;16.70;99.90
5394;DHT22;2720;52.396;10.064;2023-04-29T11:54:35;17.10;99.90
5394;DHT22;2720;52.396;10.064;2023-04-29T11:57:04;17.60;99.90
5394;DHT22;2720;52.396;10.064;2023-04-29T11:59:31;17.90;99.90
5394;DHT22;2720;52.396;10.064;2023-04-29T12:01:58;18.00;99.90
5394;DHT22;2720;52.396;10.064;2023-04-29T12:04:26;17.90;99.90
5394;DHT22;2720;52.396;10.064;2023-04-29T12:06:55;17.80;99.90
5394;DHT22;2720;52.396;10.064;2023-04-29T12:09:22;17.40;99.90
5394;DHT22;2720;52.396;10.064;2023-04-29T12:11:49;17.00;99.90
5394;DHT22;2720;52.396;10.064;2023-04-29T12:14:18;16.60;99.90
5394;DHT22;2720;52.396;10.064;2023-04-29T12:16:45;16.50;99.90
5394;DHT22;2720;52.396;10.064;2023-04-29T12:19:12;16.90;99.90
5394;DHT22;2720;52.396;10.064;2023-04-29T12:21:47;17.20;99.90
5394;DHT22;2720;52.396;10.064;2023-04-29T12:24:14;17.10;99.90
5394;DHT22;2720;52.396;10.064;2023-04-29T12:26:44;17.10;99.90
5394;DHT22;2720;52.396;10.064;2023-04-29T12:29:12;17.00;99.90
5394;DHT22;2720;52.396;10.064;2023-04-29T12:31:41;17.00;99.90
5394;DHT22;2720;52.396;10.064;2023-04-29T12:34:08;17.20;99.90
5394;DHT22;2720;52.396;10.064;2023-04-29T12:36:35;17.10;99.90
5394;DHT22;2720;52.396;10.064;2023-04-29T12:39:05;16.90;99.90
5394;DHT22;2720;52.396;10.064;2023-04-29T12:41:40;16.80;99.90
5394;DHT22;2720;52.396;10.064;2023-04-29T12:44:07;16.80;99.90
5394;DHT22;2720;52.396;10.064;2023-04-29T12:46:37;16.80;99.90
5394;DHT22;2720;52.396;10.064;2023-04-29T12:49:06;16.70;99.90
5394;DHT22;2720;52.396;10.064;2023-04-29T12:51:34;16.60;99.90
5394;DHT22;2720;52.396;10.064;2023-04-29T12:54:01;16.60;99.90
5394;DHT22;2720;52.396;10.064;2023-04-29T12:56:29;16.60;99.90
5394;DHT22;2720;52.396;10.064;2023-04-29T12:59:03;16.60;99.90
5394;DHT22;2720;52.396;10.064;2023-04-29T13:01:30;16.70;99.90
5394;DHT22;2720;52.396;10.064;2023-04-29T13:03:57;16.90;99.90
5394;DHT22;2720;52.396;10.064;2023-04-29T13:06:25;16.70;99.90
5394;DHT22;2720;52.396;10.064;2023-04-29T13:08:52;16.40;99.90
5394;DHT22;2720;52.396;10.064;2023-04-29T13:11:19;16.10;99.90
5394;DHT22;2720;52.396;10.064;2023-04-29T13:13:46;15.90;99.90
5394;DHT22;2720;52.396;10.064;2023-04-29T13:16:13;15.40;99.90
5394;DHT22;2720;52.396;10.064;2023-04-29T13:18:40;15.20;99.90
5394;DHT22;2720;52.396;10.064;2023-04-29T13:21:07;15.00;99.90
5394;DHT22;2720;52.396;10.064;2023-04-29T13:23:35;15.00;99.90
5394;DHT22;2720;52.396;10.064;2023-04-29T13:26:02;15.20;99.90
5394;DHT22;2720;52.396;10.064;2023-04-29T13:28:29;15.30;99.90
5394;DHT22;2720;52.396;10.064;2023-04-29T13:30:56;15.50;99.90
5394;DHT22;2720;52.396;10.064;2023-04-29T13:33:23;15.80;99.90
5394;DHT22;2720;52.396;10.064;2023-04-29T13:35:50;16.10;99.90
5394;DHT22;2720;52.396;10.064;2023-04-29T13:38:17;16.00;99.90
5394;DHT22;2720;52.396;10.064;2023-04-29T13:40:45;15.80;99.90
5394;DHT22;2720;52.396;10.064;2023-04-29T13:43:13;15.50;99.90
5394;DHT22;2720;52.396;10.064;2023-04-29T13:45:39;15.30;99.90
5394;DHT22;2720;52.396;10.064;2023-04-29T13:48:06;15.10;99.90
5394;DHT22;2720;52.396;10.064;2023-04-29T13:50:33;15.00;99.90
5394;DHT22;2720;52.396;10.064;2023-04-29T13:53:01;15.00;99.90
5394;DHT22;2720;52.396;10.064;2023-04-29T13:55:28;15.10;99.90
5394;DHT22;2720;52.396;10.064;2023-04-29T13:57:56;15.20;99.90
5394;DHT22;2720;52.396;10.064;2023-04-29T14:00:23;15.30;99.90
5394;DHT22;2720;52.396;10.064;2023-04-29T14:02:50;15.40;99.90
5394;DHT22;2720;52.396;10.064;2023-04-29T14:05:17;15.40;99.90
5394;DHT22;2720;52.396;10.064;2023-04-29T14:07:44;15.30;99.90
5394;DHT22;2720;52.396;10.064;2023-04-29T14:10:11;15.20;99.90
5394;DHT22;2720;52.396;10.064;2023-04-29T14:12:38;15.10;99.90
5394;DHT22;2720;52.396;10.064;2023-04-29T14:15:07;15.10;99.90
5394;DHT22;2720;52.396;10.064;2023-04-29T14:17:34;15.10;99.90
5394;DHT22;2720;52.396;10.064;2023-04-29T14:20:02;15.00;99.90
5394;DHT22;2720;52.396;10.064;2023-04-29T14:22:29;14.80;99.90
5394;DHT22;2720;52.396;10.064;2023-04-29T14:24:56;14.80;99.90
5394;DHT22;2720;52.396;10.064;2023-04-29T14:27:23;14.80;99.90
5394;DHT22;2720;52.396;10.064;2023-04-29T14:29:51;14.90;99.90
5394;DHT22;2720;52.396;10.064;2023-04-29T14:32:19;15.00;99.90
5394;DHT22;2720;52.396;10.064;2023-04-29T14:34:46;15.20;99.90
5394;DHT22;2720;52.396;10.064;2023-04-29T14:37:13;15.40;99.90
5394;DHT22;2720;52.396;10.064;2023-04-29T14:39:40;15.50;99.90
5394;DHT22;2720;52.396;10.064;2023-04-29T14:42:07;15.60;99.90
5394;DHT22;2720;52.396;10.064;2023-04-29T14:44:34;15.60;99.90
5394;DHT22;2720;52.396;10.064;2023-04-29T14:47:01;15.40;99.90
5394;DHT22;2720;52.396;10.064;2023-04-29T14:49:29;15.30;99.90
5394;DHT22;2720;52.396;10.064;2023-04-29T14:51:56;15.20;99.90
5394;DHT22;2720;52.396;10.064;2023-04-29T14:54:23;15.20;99.90
5394;DHT22;2720;52.396;10.064;2023-04-29T14:56:51;15.10;99.90
5394;DHT22;2720;52.396;10.064;2023-04-29T14:59:18;15.10;99.90
5394;DHT22;2720;52.396;10.064;2023-04-29T15:01:45;15.20;99.90
5394;DHT22;2720;52.396;10.064;2023-04-29T15:04:12;15.20;99.90
5394;DHT22;2720;52.396;10.064;2023-04-29T15:06:40;15.20;99.90
5394;DHT22;2720;52.396;10.064;2023-04-29T15:09:07;15.10;99.90
5394;DHT22;2720;52.396;10.064;2023-04-29T15:11:34;15.10;99.90
5394;DHT22;2720;52.396;10.064;2023-04-29T15:14:01;15.00;99.90
5394;DHT22;2720;52.396;10.064;2023-04-29T15:16:28;15.10;99.90
5394;DHT22;2720;52.396;10.064;2023-04-29T15:18:56;15.00;99.90
5394;DHT22;2720;52.396;10.064;2023-04-29T15:21:23;15.00;99.90
5394;DHT22;2720;52.396;10.064;2023-04-29T15:23:51;15.10;99.90
5394;DHT22;2720;52.396;10.064;2023-04-29T15:26:18;15.10;99.90
5394;DHT22;2720;52.396;10.064;2023-04-29T15:28:46;15.20;99.90
5394;DHT22;2720;52.396;10.064;2023-04-29T15:31:13;15.30;99.90
5394;DHT22;2720;52.396;10.064;2023-04-29T15:33:40;15.30;99.90
5394;DHT22;2720;52.396;10.064;2023-04-29T15:36:07;15.20;99.90
5394;DHT22;2720;52.396;10.064;2023-04-29T15:38:34;15.20;99.90
5394;DHT22;2720;52.396;10.064;2023-04-29T15:41:02;15.10;99.90
5394;DHT22;2720;52.396;10.064;2023-04-29T15:43:29;15.10;99.90
5394;DHT22;2720;52.396;10.064;2023-04-29T15:45:58;15.20;99.90
5394;DHT22;2720;52.396;10.064;2023-04-29T15:48:25;15.20;99.90
5394;DHT22;2720;52.396;10.064;2023-04-29T15:50:52;15.20;99.90
5394;DHT22;2720;52.396;10.064;2023-04-29T15:53:19;15.30;99.90
5394;DHT22;2720;52.396;10.064;2023-04-29T15:55:46;15.30;99.90
5394;DHT22;2720;52.396;10.064;2023-04-29T15:58:14;15.50;99.90
5394;DHT22;2720;52.396;10.064;2023-04-29T16:00:41;15.90;99.90
5394;DHT22;2720;52.396;10.064;2023-04-29T16:03:08;16.60;99.90
5394;DHT22;2720;52.396;10.064;2023-04-29T16:05:35;17.30;99.90
5394;DHT22;2720;52.396;10.064;2023-04-29T16:08:03;17.90;99.90
5394;DHT22;2720;52.396;10.064;2023-04-29T16:10:30;18.20;99.90
5394;DHT22;2720;52.396;10.064;2023-04-29T16:12:57;18.20;99.90
5394;DHT22;2720;52.396;10.064;2023-04-29T16:15:26;17.80;99.90
5394;DHT22;2720;52.396;10.064;2023-04-29T16:17:53;17.40;99.90
5394;DHT22;2720;52.396;10.064;2023-04-29T16:20:21;17.10;99.90
5394;DHT22;2720;52.396;10.064;2023-04-29T16:22:48;17.30;99.90
5394;DHT22;2720;52.396;10.064;2023-04-29T16:25:15;17.50;99.90